Time;durP1;ratioP1;P1;durP2;ratioP2;P2;SDS_P1;SDS_P2;PMS_P1;PMS_P2;Temp;Humidity;BMP_temperature;BMP_pressure;BME280_temperature;BME280_humidity;BME280_pressure;Samples;Min_cycle;Max_cycle;Signal;HPM_P1;HPM_P2
2022/05/17 00:02:39;;;;;;;7.03;2.17;;;15.60;96.30;;;;;;6223515;28;20061;-85
2022/05/17 00:05:41;;;;;;;6.28;2.05;;;15.50;96.30;;;;;;6224162;28;20054;-83
2022/05/17 00:08:44;;;;;;;6.50;2.15;;;15.50;96.30;;;;;;6224772;28;20529;-83
2022/05/17 00:11:47;;;;;;;3.70;2.20;;;15.40;96.30;;;;;;6224469;28;20409;-83
2022/05/17 00:14:49;;;;;;;3.42;1.80;;;15.40;96.30;;;;;;6225570;28;20100;-83
2022/05/17 00:17:53;;;;;;;3.47;2.10;;;15.30;96.40;;;;;;6223153;28;20064;-85
2022/05/17 00:20:55;;;;;;;6.30;2.00;;;15.30;96.40;;;;;;6223024;28;20050;-85
2022/05/17 00:23:58;;;;;;;9.95;2.65;;;15.20;96.50;;;;;;6223703;28;20052;-85
2022/05/17 00:27:00;;;;;;;3.33;1.80;;;15.20;96.60;;;;;;6224919;28;20050;-84
2022/05/17 00:30:02;;;;;;;4.43;1.80;;;15.20;96.50;;;;;;6224057;28;20046;-83
2022/05/17 00:33:04;;;;;;;5.45;2.35;;;15.20;96.50;;;;;;6223176;28;20053;-83
2022/05/17 00:36:06;;;;;;;5.97;2.05;;;15.10;96.40;;;;;;6222327;28;20052;-83
2022/05/17 00:39:10;;;;;;;7.10;2.35;;;15.10;96.40;;;;;;6225191;28;20054;-83
2022/05/17 00:42:11;;;;;;;3.33;2.00;;;15.00;96.40;;;;;;6227600;28;20177;-83
2022/05/17 00:45:13;;;;;;;2.40;1.77;;;15.10;96.50;;;;;;6226907;28;20072;-84
2022/05/17 00:48:18;;;;;;;2.90;2.10;;;15.10;96.50;;;;;;6219202;28;20042;-84
2022/05/17 00:51:22;;;;;;;6.18;1.90;;;15.00;96.60;;;;;;6227562;28;20045;-83
2022/05/17 00:54:25;;;;;;;6.68;2.58;;;15.00;96.50;;;;;;6228035;28;20053;-83
2022/05/17 00:57:32;;;;;;;4.03;2.10;;;14.90;96.50;;;;;;6226700;28;20068;-83
2022/05/17 01:00:38;;;;;;;4.90;1.75;;;14.90;96.50;;;;;;6226945;28;20423;-83
2022/05/17 01:03:47;;;;;;;5.15;1.90;;;14.80;96.50;;;;;;6226300;28;20483;-84
2022/05/17 01:06:52;;;;;;;2.90;2.10;;;14.90;96.60;;;;;;6227208;28;20403;-84
2022/05/17 01:09:57;;;;;;;4.38;2.42;;;14.80;96.50;;;;;;6226828;28;20049;-84
2022/05/17 01:16:19;;;;;;;6.97;3.15;;;14.70;96.50;;;;;;6226440;28;20042;-84
2022/05/17 01:19:20;;;;;;;2.85;1.55;;;14.80;96.80;;;;;;6226963;28;20058;-84
2022/05/17 01:22:24;;;;;;;2.65;1.90;;;14.80;96.80;;;;;;6227929;28;20056;-83
2022/05/17 01:25:25;;;;;;;8.55;2.20;;;14.80;96.80;;;;;;6227454;28;20217;-83
2022/05/17 01:28:30;;;;;;;3.53;2.45;;;14.80;96.80;;;;;;6228489;28;20046;-83
2022/05/17 01:31:35;;;;;;;4.13;2.40;;;14.70;96.70;;;;;;6227421;28;20418;-82
2022/05/17 01:34:37;;;;;;;6.78;2.30;;;14.80;96.70;;;;;;6226913;28;20389;-85
2022/05/17 01:37:40;;;;;;;6.50;1.60;;;14.70;96.70;;;;;;6227401;28;20133;-84
2022/05/17 01:40:42;;;;;;;4.55;3.05;;;14.60;96.60;;;;;;6227920;28;20049;-82
2022/05/17 01:43:44;;;;;;;4.93;2.20;;;14.60;96.70;;;;;;6228260;28;20081;-82
2022/05/17 01:46:46;;;;;;;4.80;2.25;;;14.60;96.70;;;;;;6228885;28;20050;-82
2022/05/17 01:49:48;;;;;;;5.85;2.08;;;14.50;96.70;;;;;;6227024;28;20042;-82
2022/05/17 01:52:51;;;;;;;3.78;2.15;;;14.50;96.70;;;;;;6228660;28;20042;-82
2022/05/17 01:55:53;;;;;;;7.22;2.03;;;14.50;96.70;;;;;;6228155;28;20052;-84
2022/05/17 01:58:54;;;;;;;7.95;2.35;;;14.40;96.80;;;;;;6228661;28;20048;-83
2022/05/17 02:01:56;;;;;;;3.67;2.05;;;14.40;96.70;;;;;;6227779;28;20053;-82
2022/05/17 02:04:58;;;;;;;6.32;1.90;;;14.40;96.80;;;;;;6217380;28;20110;-82
2022/05/17 02:08:01;;;;;;;8.77;2.40;;;14.40;96.80;;;;;;6225503;28;20558;-83
2022/05/17 02:11:03;;;;;;;9.70;2.20;;;14.30;96.70;;;;;;6229706;28;20050;-82
2022/05/17 02:14:06;;;;;;;5.65;1.80;;;14.30;96.80;;;;;;6229656;28;20590;-82
2022/05/17 02:17:08;;;;;;;2.78;1.75;;;14.30;96.80;;;;;;6228802;28;20046;-82
2022/05/17 02:20:10;;;;;;;3.60;1.83;;;14.20;96.80;;;;;;6228189;28;20049;-82
2022/05/17 02:23:13;;;;;;;5.55;1.80;;;14.20;96.80;;;;;;6226151;28;20427;-82
2022/05/17 02:26:15;;;;;;;4.85;1.52;;;14.20;96.80;;;;;;6228057;28;20042;-82
2022/05/17 02:29:17;;;;;;;4.43;2.20;;;14.20;96.70;;;;;;6230865;28;20400;-83
2022/05/17 02:32:19;;;;;;;4.35;2.13;;;14.20;96.70;;;;;;6226879;28;20045;-83
2022/05/17 02:35:20;;;;;;;4.10;2.30;;;14.20;96.70;;;;;;6228174;28;20497;-82
2022/05/17 02:38:23;;;;;;;4.72;1.70;;;14.10;96.80;;;;;;6228025;28;20529;-82
2022/05/17 02:41:25;;;;;;;5.00;2.60;;;14.10;96.80;;;;;;6230042;28;20050;-83
2022/05/17 02:44:28;;;;;;;2.90;2.08;;;14.10;96.70;;;;;;6227374;28;20578;-83
2022/05/17 02:47:30;;;;;;;7.55;1.95;;;14.00;96.70;;;;;;6226952;28;20045;-82
2022/05/17 02:50:32;;;;;;;3.88;2.13;;;14.00;96.80;;;;;;6228063;28;20046;-83
2022/05/17 02:53:35;;;;;;;5.38;1.92;;;13.90;96.80;;;;;;6226982;28;20054;-83
2022/05/17 02:56:38;;;;;;;3.65;2.33;;;14.00;96.80;;;;;;6226527;28;20053;-83
2022/05/17 02:59:39;;;;;;;7.60;1.80;;;13.90;96.80;;;;;;6226979;28;20088;-84
2022/05/17 03:02:41;;;;;;;6.22;2.28;;;13.90;96.80;;;;;;6230040;28;20088;-83
2022/05/17 03:05:43;;;;;;;6.35;2.38;;;13.80;96.90;;;;;;6228499;28;20419;-83
2022/05/17 03:08:46;;;;;;;6.97;3.10;;;13.70;96.90;;;;;;6228965;28;20046;-83
2022/05/17 03:11:48;;;;;;;4.38;2.55;;;13.70;97.00;;;;;;6228632;28;20041;-83
2022/05/17 03:14:50;;;;;;;5.30;2.75;;;13.70;97.10;;;;;;6227364;28;20097;-83
2022/05/17 03:17:51;;;;;;;4.35;2.42;;;13.70;97.10;;;;;;6225933;28;20049;-83
2022/05/17 03:20:53;;;;;;;6.35;2.70;;;13.70;97.10;;;;;;6211115;28;20049;-83
2022/05/17 03:23:56;;;;;;;5.28;2.40;;;13.70;97.10;;;;;;6215945;28;20407;-83
2022/05/17 03:26:58;;;;;;;3.75;1.80;;;13.80;97.00;;;;;;6202082;28;20057;-82
2022/05/17 03:30:00;;;;;;;4.05;2.33;;;13.70;97.00;;;;;;6202404;28;20141;-83
2022/05/17 03:33:02;;;;;;;3.65;2.10;;;13.70;97.00;;;;;;6200150;28;20050;-80
2022/05/17 03:36:04;;;;;;;7.38;2.08;;;13.70;97.00;;;;;;6200048;28;20521;-81
2022/05/17 03:39:07;;;;;;;5.88;2.17;;;13.70;97.00;;;;;;6200822;28;20047;-81
2022/05/17 03:42:11;;;;;;;6.20;2.10;;;13.70;97.00;;;;;;6200967;28;20480;-81
2022/05/17 03:45:13;;;;;;;3.92;2.58;;;13.70;97.00;;;;;;6199806;28;20128;-80
2022/05/17 03:48:15;;;;;;;3.42;2.50;;;13.70;96.90;;;;;;6201531;28;20052;-81
2022/05/17 03:51:19;;;;;;;8.93;2.78;;;13.70;97.00;;;;;;6203701;28;20435;-81
2022/05/17 03:54:23;;;;;;;6.38;2.20;;;13.70;97.00;;;;;;6202660;28;20046;-80
2022/05/17 03:57:26;;;;;;;7.25;2.58;;;13.80;96.90;;;;;;6202227;28;20046;-80
2022/05/17 04:00:28;;;;;;;5.72;2.58;;;13.80;96.90;;;;;;6202030;28;20046;-81
2022/05/17 04:03:30;;;;;;;8.57;2.85;;;13.80;96.90;;;;;;6201977;28;20447;-81
2022/05/17 04:06:32;;;;;;;3.80;2.35;;;13.80;96.90;;;;;;6203031;28;20058;-80
2022/05/17 04:09:35;;;;;;;5.05;2.42;;;13.90;96.90;;;;;;6201877;28;20050;-81
2022/05/17 04:12:37;;;;;;;3.17;2.08;;;13.90;96.80;;;;;;6201802;28;20124;-81
2022/05/17 04:15:39;;;;;;;3.78;2.80;;;14.00;96.80;;;;;;6206212;28;20463;-81
2022/05/17 04:18:41;;;;;;;4.85;2.20;;;14.10;96.70;;;;;;6205802;28;20455;-81
2022/05/17 04:21:44;;;;;;;5.43;2.17;;;14.20;96.70;;;;;;6206189;28;20129;-80
2022/05/17 04:24:47;;;;;;;9.07;2.35;;;14.30;96.60;;;;;;6218525;28;20044;-81
2022/05/17 04:27:50;;;;;;;6.68;2.38;;;14.40;96.50;;;;;;6205296;28;20388;-81
2022/05/17 04:30:51;;;;;;;2.72;1.65;;;14.50;96.30;;;;;;6207061;28;20054;-81
2022/05/17 04:33:53;;;;;;;7.97;2.17;;;14.70;96.20;;;;;;6206098;28;20042;-81
2022/05/17 04:36:55;;;;;;;5.38;2.42;;;14.90;96.10;;;;;;6206310;28;20046;-81
2022/05/17 04:39:58;;;;;;;4.38;1.85;;;15.10;95.80;;;;;;6205683;28;20054;-81
2022/05/17 04:43:00;;;;;;;3.00;1.98;;;15.40;95.50;;;;;;6206582;28;20046;-81
2022/05/17 04:46:01;;;;;;;6.18;1.83;;;15.60;95.00;;;;;;6205700;28;20050;-81
2022/05/17 04:49:03;;;;;;;4.50;1.90;;;15.90;94.70;;;;;;6205019;28;20050;-80
2022/05/17 04:52:06;;;;;;;9.20;2.70;;;16.30;94.30;;;;;;6206091;28;20070;-81
2022/05/17 04:55:11;;;;;;;4.03;2.42;;;16.70;93.90;;;;;;6206198;28;20050;-80
2022/05/17 04:58:13;;;;;;;8.43;2.10;;;17.30;93.50;;;;;;6204785;28;20133;-81
2022/05/17 05:01:15;;;;;;;5.82;2.03;;;18.00;92.80;;;;;;6204301;28;20181;-81
2022/05/17 05:04:17;;;;;;;3.53;1.85;;;18.40;92.20;;;;;;6205131;28;20451;-81
2022/05/17 05:07:19;;;;;;;4.63;1.67;;;19.10;91.40;;;;;;6205866;28;20057;-81
2022/05/17 05:10:23;;;;;;;5.07;1.88;;;19.90;90.10;;;;;;6205034;28;20093;-81
2022/05/17 05:13:26;;;;;;;2.53;1.33;;;20.60;88.20;;;;;;6204165;28;20126;-81
2022/05/17 05:16:27;;;;;;;7.60;1.67;;;21.50;85.00;;;;;;6204223;28;20504;-80
2022/05/17 05:19:29;;;;;;;9.07;2.15;;;22.40;82.20;;;;;;6204495;28;20054;-82
2022/05/17 05:22:32;;;;;;;2.47;1.25;;;23.20;79.30;;;;;;6205211;28;20535;-81
2022/05/17 05:25:35;;;;;;;3.47;1.33;;;24.30;76.10;;;;;;6204676;28;20125;-81
2022/05/17 05:28:38;;;;;;;5.90;1.92;;;25.60;72.50;;;;;;6204117;28;20129;-82
2022/05/17 05:31:39;;;;;;;8.43;1.83;;;26.70;69.20;;;;;;6204133;28;20068;-82
2022/05/17 05:34:41;;;;;;;5.28;1.90;;;27.90;66.40;;;;;;6205622;28;20054;-82
2022/05/17 05:37:43;;;;;;;4.68;1.80;;;28.80;62.50;;;;;;6205833;28;20050;-81
2022/05/17 05:40:46;;;;;;;5.30;1.83;;;29.70;59.70;;;;;;6222046;28;20060;-82
2022/05/17 05:43:48;;;;;;;9.95;2.00;;;30.50;57.00;;;;;;6213488;28;20050;-82
2022/05/17 05:46:50;;;;;;;6.22;2.05;;;31.70;54.00;;;;;;6214820;28;20069;-83
2022/05/17 05:49:51;;;;;;;7.28;1.88;;;32.90;50.30;;;;;;6234450;28;20050;-84
2022/05/17 05:53:00;;;;;;;3.97;1.67;;;33.90;47.50;;;;;;6234955;28;20052;-83
2022/05/17 05:56:05;;;;;;;6.95;1.95;;;34.30;45.70;;;;;;6235193;28;20439;-84
2022/05/17 05:59:07;;;;;;;4.18;2.28;;;34.50;44.60;;;;;;6235069;28;20050;-83
2022/05/17 06:02:10;;;;;;;7.88;1.90;;;34.40;44.10;;;;;;6235703;28;20072;-83
2022/05/17 06:05:12;;;;;;;3.55;2.03;;;34.50;43.70;;;;;;6235305;28;20129;-83
2022/05/17 06:08:14;;;;;;;4.40;2.00;;;34.60;43.20;;;;;;6235577;28;20042;-83
2022/05/17 06:11:17;;;;;;;5.80;1.65;;;34.80;42.60;;;;;;6236783;28;20046;-83
2022/05/17 06:14:20;;;;;;;9.63;2.97;;;35.20;41.90;;;;;;6236216;28;20050;-84
2022/05/17 06:17:27;;;;;;;11.15;2.20;;;35.70;41.00;;;;;;6234246;28;20499;-83
2022/05/17 06:20:28;;;;;;;6.40;2.30;;;36.30;40.20;;;;;;6232403;28;20084;-83
2022/05/17 06:23:31;;;;;;;9.63;2.20;;;36.30;39.70;;;;;;6227995;28;20046;-84
2022/05/17 06:26:34;;;;;;;3.10;1.65;;;36.00;39.50;;;;;;6231364;28;20046;-84
2022/05/17 06:29:36;;;;;;;4.50;1.48;;;35.80;40.10;;;;;;6232575;28;20045;-84
2022/05/17 06:32:38;;;;;;;2.67;1.25;;;35.80;40.30;;;;;;6207320;28;20178;-85
2022/05/17 06:35:41;;;;;;;4.65;1.52;;;36.20;39.80;;;;;;6203158;28;20129;-86
2022/05/17 06:38:43;;;;;;;4.28;1.42;;;36.60;39.00;;;;;;6201081;28;20057;-84
2022/05/17 06:41:47;;;;;;;5.57;1.30;;;37.20;38.60;;;;;;6201034;28;20050;-85
2022/05/17 06:44:49;;;;;;;8.75;3.55;;;37.60;37.90;;;;;;6202921;28;20054;-84
2022/05/17 06:47:51;;;;;;;5.47;1.50;;;38.20;37.40;;;;;;6201455;28;20046;-85
2022/05/17 06:50:52;;;;;;;5.75;1.27;;;38.50;36.30;;;;;;6204369;28;20110;-85
2022/05/17 06:53:54;;;;;;;2.92;1.50;;;38.60;36.10;;;;;;6212450;28;20056;-86
2022/05/17 06:56:57;;;;;;;3.67;1.30;;;38.60;35.90;;;;;;6223901;28;20041;-85
2022/05/17 06:59:59;;;;;;;3.55;1.58;;;38.90;35.50;;;;;;6223894;28;20518;-85
2022/05/17 07:03:01;;;;;;;2.88;1.25;;;39.30;34.90;;;;;;6225152;28;20046;-86
2022/05/17 07:06:04;;;;;;;4.75;1.15;;;39.80;34.30;;;;;;6225464;28;20052;-85
2022/05/17 07:09:05;;;;;;;5.82;1.63;;;40.30;34.00;;;;;;6225605;28;20049;-84
2022/05/17 07:15:29;;;;;;;7.00;1.65;;;40.60;32.90;;;;;;6227372;28;20057;-85
2022/05/17 07:18:30;;;;;;;3.30;1.17;;;39.70;33.40;;;;;;6223849;28;20515;-85
2022/05/17 07:21:33;;;;;;;5.63;1.33;;;38.60;34.50;;;;;;6225387;28;20054;-85
2022/05/17 07:24:36;;;;;;;3.85;1.15;;;37.60;35.70;;;;;;6223948;28;20046;-84
2022/05/17 07:27:39;;;;;;;2.05;1.13;;;36.70;37.00;;;;;;6217210;28;20058;-85
2022/05/17 07:30:42;;;;;;;3.33;1.55;;;36.50;37.90;;;;;;6201269;28;20046;-84
2022/05/17 07:33:44;;;;;;;4.35;1.30;;;36.80;37.80;;;;;;6201906;28;20128;-85
2022/05/17 07:36:46;;;;;;;6.78;1.42;;;37.00;37.90;;;;;;6201798;28;20070;-84
2022/05/17 07:39:48;;;;;;;4.28;1.52;;;37.00;37.80;;;;;;6200422;28;20046;-84
2022/05/17 07:42:52;;;;;;;2.97;1.48;;;36.80;38.10;;;;;;6203511;28;20058;-86
2022/05/17 07:45:54;;;;;;;3.47;1.20;;;36.30;38.50;;;;;;6198270;28;20827;-87
2022/05/17 07:48:56;;;;;;;5.00;1.48;;;35.80;38.90;;;;;;6200493;28;20066;-85
2022/05/17 07:51:57;;;;;;;8.07;1.88;;;35.30;39.50;;;;;;6201267;28;20038;-85
2022/05/17 07:54:59;;;;;;;3.97;1.50;;;34.80;40.10;;;;;;6203287;28;20051;-85
2022/05/17 07:58:02;;;;;;;5.55;1.45;;;34.50;41.00;;;;;;6202622;28;20116;-85
2022/05/17 08:01:04;;;;;;;4.20;1.95;;;34.10;41.20;;;;;;6203808;28;20053;-86
2022/05/17 08:04:06;;;;;;;2.80;1.08;;;33.80;41.60;;;;;;6204212;28;20049;-85
2022/05/17 08:07:08;;;;;;;6.25;1.35;;;33.50;42.20;;;;;;6205238;28;20047;-85
2022/05/17 08:10:10;;;;;;;3.92;1.67;;;33.50;42.90;;;;;;6203798;28;20058;-86
2022/05/17 08:13:15;;;;;;;6.78;1.75;;;33.60;42.30;;;;;;6204916;28;20071;-85
2022/05/17 08:16:16;;;;;;;8.07;1.48;;;33.30;42.30;;;;;;6203882;28;20061;-85
2022/05/17 08:19:18;;;;;;;4.50;1.77;;;33.00;43.20;;;;;;6205557;28;20560;-85
2022/05/17 08:22:20;;;;;;;4.20;1.98;;;33.10;43.20;;;;;;6206386;28;20051;-85
2022/05/17 08:28:52;;;;;;;5.00;1.55;;;33.50;42.50;;;;;;6191244;28;20046;-85
2022/05/17 08:35:13;;;;;;;6.38;1.85;;;33.70;42.20;;;;;;6205482;28;20054;-85
2022/05/17 08:38:17;;;;;;;5.35;1.88;;;34.10;41.30;;;;;;6203675;28;20416;-85
2022/05/17 08:41:25;;;;;;;4.40;2.05;;;33.90;41.10;;;;;;6205406;28;20050;-85
2022/05/17 08:44:40;;;;;;;5.35;1.73;;;33.60;40.30;;;;;;6204255;28;20598;-85
2022/05/17 08:47:46;;;;;;;6.50;1.50;;;33.60;41.40;;;;;;6204809;28;20052;-85
2022/05/17 08:50:50;;;;;;;4.18;1.50;;;33.80;41.00;;;;;;6206229;28;20043;-86
2022/05/17 08:53:51;;;;;;;3.97;1.65;;;34.60;40.30;;;;;;6200174;28;20046;-85
2022/05/17 08:57:02;;;;;;;3.78;1.30;;;35.60;38.70;;;;;;6199086;28;20051;-85
2022/05/17 09:00:19;;;;;;;3.45;1.30;;;35.80;37.70;;;;;;6215844;28;20046;-85
2022/05/17 09:07:13;;;;;;;3.83;1.25;;;36.00;37.20;;;;;;6219898;28;20057;-84
2022/05/17 09:10:28;;;;;;;3.92;0.95;;;36.10;36.50;;;;;;6227395;28;20503;-82
2022/05/17 09:13:37;;;;;;;2.78;1.15;;;36.60;36.30;;;;;;6228395;28;20101;-84
2022/05/17 09:16:45;;;;;;;1.35;0.80;;;37.10;35.60;;;;;;6227283;28;20045;-85
2022/05/17 09:19:49;;;;;;;3.15;1.25;;;37.70;35.10;;;;;;6230434;28;20052;-85
2022/05/17 09:22:51;;;;;;;5.22;1.38;;;38.60;34.00;;;;;;6234551;28;20061;-82
2022/05/17 09:26:07;;;;;;;3.38;1.27;;;38.90;33.80;;;;;;6237477;28;20133;-83
2022/05/17 09:29:15;;;;;;;3.22;1.00;;;39.40;33.20;;;;;;6232984;28;20052;-83
2022/05/17 09:32:26;;;;;;;5.28;0.88;;;39.40;30.70;;;;;;6229677;28;20220;-84
2022/05/17 09:35:29;;;;;;;3.75;0.68;;;39.20;31.70;;;;;;6225536;28;20054;-86
2022/05/17 09:38:32;;;;;;;3.83;1.10;;;39.70;31.00;;;;;;6227018;28;20192;-82
2022/05/17 09:41:38;;;;;;;9.90;1.05;;;40.20;30.30;;;;;;6229605;28;20057;-84
2022/05/17 09:44:43;;;;;;;2.15;0.70;;;40.00;30.40;;;;;;6230875;28;20048;-84
2022/05/17 09:47:59;;;;;;;5.10;1.35;;;39.50;30.00;;;;;;6226667;28;20045;-84
2022/05/17 09:54:31;;;;;;;3.08;0.80;;;37.90;31.40;;;;;;6228389;28;20050;-84
2022/05/17 09:57:33;;;;;;;4.90;0.90;;;37.60;31.90;;;;;;6226068;28;20046;-83
2022/05/17 10:00:41;;;;;;;1.80;0.90;;;37.50;32.00;;;;;;6233881;28;20046;-83
2022/05/17 10:03:59;;;;;;;8.23;1.50;;;37.40;31.80;;;;;;6231749;28;20056;-83
2022/05/17 10:07:12;;;;;;;2.45;1.15;;;37.10;31.80;;;;;;6235475;28;20739;-83
2022/05/17 10:10:32;;;;;;;2.83;1.10;;;36.80;32.40;;;;;;6225456;28;20061;-84
2022/05/17 10:13:40;;;;;;;3.58;1.13;;;35.50;32.90;;;;;;6227766;28;20434;-84
2022/05/17 10:16:48;;;;;;;4.78;0.90;;;34.20;34.30;;;;;;6225130;28;20070;-83
2022/05/17 10:19:56;;;;;;;6.13;1.10;;;33.70;35.50;;;;;;6224537;28;20041;-84
2022/05/17 10:23:01;;;;;;;4.60;1.33;;;33.10;36.20;;;;;;6224752;28;20065;-84
2022/05/17 10:26:07;;;;;;;4.60;1.05;;;32.80;36.80;;;;;;6224073;28;20533;-85
2022/05/17 10:29:17;;;;;;;6.68;0.80;;;32.90;37.40;;;;;;6227734;28;20640;-83
2022/05/17 10:32:26;;;;;;;1.75;1.05;;;33.10;37.40;;;;;;6224760;28;20046;-85
2022/05/17 10:35:34;;;;;;;4.30;0.77;;;32.90;37.50;;;;;;6229204;28;20049;-87
2022/05/17 10:38:44;;;;;;;4.05;0.93;;;32.90;37.60;;;;;;6225008;28;20046;-84
2022/05/17 10:41:46;;;;;;;8.02;1.50;;;33.10;36.90;;;;;;6223921;28;20053;-85
2022/05/17 10:44:52;;;;;;;2.90;1.20;;;33.20;36.20;;;;;;6225150;28;20519;-83
2022/05/17 10:48:02;;;;;;;2.95;1.08;;;33.10;35.90;;;;;;6224133;28;20038;-85
2022/05/17 10:51:11;;;;;;;7.05;1.08;;;33.10;36.50;;;;;;6224516;28;20077;-83
2022/05/17 10:54:27;;;;;;;1.95;0.80;;;33.40;36.40;;;;;;6224447;28;20791;-82
2022/05/17 10:57:38;;;;;;;3.42;0.75;;;33.80;36.70;;;;;;6225124;28;20042;-83
2022/05/17 11:00:42;;;;;;;5.10;1.10;;;34.00;36.50;;;;;;6225093;28;20062;-82
2022/05/17 11:04:22;;;;;;;2.72;0.98;;;34.10;36.20;;;;;;6224002;28;20046;-83
2022/05/17 11:07:42;;;;;;;2.72;0.90;;;33.90;36.40;;;;;;6224759;28;20050;-83
2022/05/17 11:10:59;;;;;;;4.32;0.75;;;33.50;35.70;;;;;;6224120;28;20050;-83
2022/05/17 11:14:06;;;;;;;6.27;0.80;;;32.80;36.00;;;;;;6223364;28;20056;-82
2022/05/17 11:17:15;;;;;;;4.45;1.10;;;32.60;36.90;;;;;;6223431;28;20053;-83
2022/05/17 11:20:23;;;;;;;2.28;1.30;;;32.90;37.00;;;;;;6222823;28;20046;-84
2022/05/17 11:23:45;;;;;;;4.10;0.95;;;33.30;36.70;;;;;;6223550;28;20156;-84
2022/05/17 11:27:14;;;;;;;8.38;1.15;;;33.30;37.50;;;;;;6223469;28;20054;-85
2022/05/17 11:30:21;;;;;;;3.00;1.13;;;33.10;37.50;;;;;;6214090;28;20034;-82
2022/05/17 11:33:32;;;;;;;3.22;1.02;;;33.20;37.10;;;;;;6221876;28;20415;-84
2022/05/17 11:36:45;;;;;;;4.53;1.13;;;33.50;36.10;;;;;;6222498;28;20176;-85
2022/05/17 11:39:48;;;;;;;4.95;1.23;;;33.70;36.70;;;;;;6221855;28;20048;-84
2022/05/17 11:46:53;;;;;;;3.92;1.00;;;33.70;35.60;;;;;;6247088;22;20054;-85
2022/05/17 11:50:43;;;;;;;3.70;0.88;;;33.90;35.40;;;;;;6197047;28;20058;-86
2022/05/17 11:54:06;;;;;;;3.85;1.20;;;34.10;35.00;;;;;;6199760;28;20073;-87
2022/05/17 11:57:38;;;;;;;4.57;1.05;;;34.40;34.00;;;;;;6176578;28;20082;-87
2022/05/17 12:04:42;;;;;;;2.70;0.70;;;35.40;32.90;;;;;;6137486;29;20039;-84
2022/05/17 12:12:44;;;;;;;1.10;0.50;;;35.40;32.30;;;;;;6151972;29;20170;-82
2022/05/17 12:15:54;;;;;;;1.15;0.52;;;35.30;33.20;;;;;;6153422;29;20053;-86
2022/05/17 12:19:05;;;;;;;3.67;0.73;;;35.40;33.20;;;;;;6151965;29;20047;-84
2022/05/17 12:22:25;;;;;;;3.13;0.70;;;35.50;33.30;;;;;;6142310;28;20093;-85
2022/05/17 12:26:03;;;;;;;2.53;0.88;;;35.70;33.70;;;;;;6151704;28;20627;-84
2022/05/17 12:36:18;;;;;;;3.08;0.65;;;34.80;33.10;;;;;;6153257;28;20036;-85
2022/05/17 12:46:14;;;;;;;1.23;0.50;;;33.80;34.70;;;;;;6205809;28;20085;-85
2022/05/17 12:49:19;;;;;;;4.00;0.45;;;34.30;33.60;;;;;;6206113;28;20460;-86
2022/05/17 12:52:29;;;;;;;1.50;0.50;;;34.70;32.90;;;;;;6210068;28;20253;-86
2022/05/17 12:55:32;;;;;;;2.40;0.80;;;34.20;32.70;;;;;;6209338;28;20050;-84
2022/05/17 12:58:38;;;;;;;2.70;0.55;;;33.70;33.00;;;;;;6205477;28;20053;-86
2022/05/17 13:01:44;;;;;;;1.35;0.40;;;33.60;33.10;;;;;;6203253;28;20044;-86
2022/05/17 13:04:45;;;;;;;6.57;0.65;;;33.40;33.30;;;;;;6193659;28;20126;-84
2022/05/17 13:08:02;;;;;;;3.03;0.68;;;33.30;33.10;;;;;;6182436;28;20130;-86
2022/05/17 13:11:12;;;;;;;2.10;0.85;;;33.20;33.60;;;;;;6179474;28;20050;-85
2022/05/17 13:14:22;;;;;;;1.73;0.50;;;33.10;35.00;;;;;;6177994;28;20182;-86
2022/05/17 13:17:28;;;;;;;1.05;0.50;;;32.40;35.70;;;;;;6177455;28;20059;-86
2022/05/17 13:20:31;;;;;;;2.33;0.80;;;32.20;35.10;;;;;;6182584;28;20130;-85
2022/05/17 13:23:33;;;;;;;3.58;0.65;;;32.10;36.40;;;;;;6181953;28;20141;-85
2022/05/17 13:26:38;;;;;;;4.78;0.88;;;32.40;35.70;;;;;;6186723;28;20051;-85
2022/05/17 13:29:41;;;;;;;2.60;0.77;;;32.60;35.40;;;;;;6194468;28;20045;-85
2022/05/17 13:32:49;;;;;;;3.17;0.70;;;32.70;35.40;;;;;;6205951;28;20050;-83
2022/05/17 13:36:04;;;;;;;1.65;0.80;;;32.70;36.20;;;;;;6208307;28;20046;-83
2022/05/17 13:39:19;;;;;;;2.75;0.50;;;32.80;35.90;;;;;;6205455;28;20042;-83
2022/05/17 13:42:24;;;;;;;3.45;0.60;;;33.20;35.00;;;;;;6206038;28;20269;-84
2022/05/17 13:45:31;;;;;;;4.45;0.77;;;33.20;35.40;;;;;;6204897;28;20050;-83
2022/05/17 13:48:37;;;;;;;1.83;0.57;;;32.90;34.90;;;;;;6204638;28;20382;-84
2022/05/17 13:51:51;;;;;;;1.55;0.50;;;32.70;35.70;;;;;;6205484;28;20046;-82
2022/05/17 13:54:56;;;;;;;2.22;0.70;;;32.80;34.80;;;;;;6205629;28;20658;-82
2022/05/17 13:58:01;;;;;;;0.50;0.40;;;32.90;34.70;;;;;;6204316;28;20069;-83
2022/05/17 14:01:10;;;;;;;2.72;0.60;;;33.10;34.60;;;;;;6204970;28;20038;-83
2022/05/17 14:04:25;;;;;;;3.42;0.80;;;33.30;34.50;;;;;;6179367;28;20539;-85
2022/05/17 14:11:49;;;;;;;3.47;0.50;;;33.30;33.60;;;;;;6189131;28;20051;-87
2022/05/17 14:20:01;;;;;;;0.40;0.30;;;31.70;35.60;;;;;;6121916;29;20048;-86
2022/05/17 14:23:38;;;;;;;1.70;0.50;;;32.30;35.80;;;;;;6128039;29;20054;-85
2022/05/17 14:26:56;;;;;;;1.17;0.35;;;33.10;34.70;;;;;;6127766;29;20566;-85
2022/05/17 14:41:24;;;;;;;1.98;0.65;;;33.20;33.90;;;;;;6140402;29;20054;-87
2022/05/17 14:44:33;;;;;;;1.65;0.40;;;32.60;35.20;;;;;;6149512;28;20051;-85
2022/05/17 14:47:37;;;;;;;0.73;0.47;;;32.10;35.20;;;;;;6199847;28;20050;-86
2022/05/17 14:50:38;;;;;;;11.45;1.30;;;32.00;35.80;;;;;;6200686;28;20180;-86
2022/05/17 14:53:41;;;;;;;2.50;0.60;;;32.20;36.40;;;;;;6200153;28;20082;-86
2022/05/17 14:56:43;;;;;;;2.13;0.40;;;32.30;35.60;;;;;;6199825;28;20516;-86
2022/05/17 14:59:46;;;;;;;0.70;0.50;;;32.50;34.80;;;;;;6199038;28;20137;-86
2022/05/17 15:02:52;;;;;;;0.57;0.38;;;32.90;35.10;;;;;;6200485;28;20562;-85
2022/05/17 15:05:54;;;;;;;2.90;0.70;;;33.20;34.70;;;;;;6205192;28;20048;-85
2022/05/17 15:08:59;;;;;;;3.53;0.60;;;33.20;35.20;;;;;;6203748;28;20042;-83
2022/05/17 15:12:02;;;;;;;1.13;0.50;;;32.80;35.10;;;;;;6202951;28;20042;-82
2022/05/17 15:15:05;;;;;;;2.00;0.65;;;32.50;35.20;;;;;;6203615;28;20058;-83
2022/05/17 15:18:11;;;;;;;1.35;0.40;;;32.30;35.00;;;;;;6202832;28;20043;-83
2022/05/17 15:21:13;;;;;;;2.13;0.47;;;32.00;35.10;;;;;;6203523;28;20057;-84
2022/05/17 15:24:20;;;;;;;0.82;0.32;;;31.90;35.70;;;;;;6206759;28;20093;-85
2022/05/17 15:27:32;;;;;;;2.55;0.80;;;32.00;36.60;;;;;;6207133;28;20142;-83
2022/05/17 15:30:35;;;;;;;3.10;0.57;;;31.80;36.90;;;;;;6208125;28;20050;-84
2022/05/17 15:33:38;;;;;;;10.52;1.40;;;31.60;37.40;;;;;;6203397;28;20057;-81
2022/05/17 15:36:40;;;;;;;1.25;0.50;;;31.70;37.80;;;;;;6206069;28;20050;-84
2022/05/17 15:39:41;;;;;;;5.78;1.05;;;32.00;37.00;;;;;;6205844;28;20054;-85
2022/05/17 15:42:43;;;;;;;0.82;0.50;;;31.90;36.10;;;;;;6206756;28;20057;-84
2022/05/17 15:45:47;;;;;;;1.23;0.55;;;31.70;36.20;;;;;;6197551;28;20051;-85
2022/05/17 15:55:28;;;;;;;1.73;0.60;;;31.30;37.10;;;;;;6177332;28;20050;-85
2022/05/17 15:58:32;;;;;;;2.22;0.63;;;31.30;37.00;;;;;;6176917;28;20054;-83
2022/05/17 16:01:38;;;;;;;0.68;0.43;;;31.30;37.30;;;;;;6201532;28;20038;-85
2022/05/17 16:05:00;;;;;;;4.22;0.80;;;30.90;37.70;;;;;;6203482;28;20407;-84
2022/05/17 16:08:12;;;;;;;2.00;0.30;;;30.80;38.10;;;;;;6199691;28;20053;-83
2022/05/17 16:14:33;;;;;;;0.80;0.63;;;30.50;37.80;;;;;;6200429;28;20047;-86
2022/05/17 16:17:37;;;;;;;1.77;0.55;;;30.40;38.90;;;;;;6197920;28;20125;-86
2022/05/17 16:20:39;;;;;;;2.60;0.40;;;30.40;39.00;;;;;;6199896;28;20047;-83
2022/05/17 16:23:42;;;;;;;2.92;0.52;;;30.30;38.30;;;;;;6200005;28;20043;-83
2022/05/17 16:26:44;;;;;;;2.47;0.90;;;30.40;38.60;;;;;;6200647;28;20093;-84
2022/05/17 16:29:46;;;;;;;3.50;0.70;;;30.40;38.90;;;;;;6200159;28;20042;-84
2022/05/17 16:32:53;;;;;;;3.65;0.77;;;30.30;38.50;;;;;;6202388;28;20400;-84
2022/05/17 16:35:55;;;;;;;2.38;0.60;;;30.00;38.40;;;;;;6199864;28;20057;-84
2022/05/17 16:38:58;;;;;;;1.95;0.50;;;30.00;38.30;;;;;;6201070;28;20496;-83
2022/05/17 16:42:01;;;;;;;1.65;0.30;;;29.90;38.40;;;;;;6200842;28;20512;-82
2022/05/17 16:45:04;;;;;;;3.13;0.50;;;29.90;38.30;;;;;;6190038;28;20130;-83
2022/05/17 16:48:09;;;;;;;6.20;0.50;;;29.90;39.50;;;;;;6174529;28;20035;-84
2022/05/17 16:51:13;;;;;;;1.45;0.40;;;29.80;39.70;;;;;;6176944;28;20130;-84
2022/05/17 16:54:18;;;;;;;3.55;0.60;;;29.70;40.10;;;;;;6177141;28;20053;-84
2022/05/17 16:57:20;;;;;;;3.33;0.52;;;29.40;40.10;;;;;;6174839;28;20087;-86
2022/05/17 17:00:23;;;;;;;5.22;0.75;;;29.20;40.60;;;;;;6187598;28;20639;-84
2022/05/17 17:03:26;;;;;;;5.32;0.50;;;29.00;40.90;;;;;;6198335;28;20053;-84
2022/05/17 17:06:33;;;;;;;1.35;0.40;;;28.80;41.00;;;;;;6197605;28;20055;-85
2022/05/17 17:09:34;;;;;;;1.50;0.47;;;28.60;41.80;;;;;;6198053;28;20092;-83
2022/05/17 17:12:36;;;;;;;3.38;0.35;;;28.40;42.60;;;;;;6198156;28;20050;-83
2022/05/17 17:15:39;;;;;;;2.55;0.98;;;28.20;42.30;;;;;;6197328;28;20062;-85
2022/05/17 17:18:43;;;;;;;6.43;0.75;;;28.00;42.90;;;;;;6197845;28;20081;-87
2022/05/17 17:21:44;;;;;;;0.93;0.40;;;27.80;42.50;;;;;;6200159;28;20125;-86